createdAt,value
2018-04-10T00:00:53.809Z,16.86
2018-04-10T00:01:53.835Z,16.96
2018-04-10T00:02:53.849Z,16.96
2018-04-10T00:03:53.631Z,16.93
2018-04-10T00:04:53.898Z,16.97
2018-04-10T00:05:53.415Z,16.91
2018-04-10T00:06:53.589Z,16.9
2018-04-10T00:07:53.964Z,16.89
2018-04-10T00:08:53.735Z,16.89
2018-04-10T00:09:54.014Z,16.91
2018-04-10T00:10:54.036Z,16.76
2018-04-10T00:11:54.060Z,16.75
2018-04-10T00:12:53.829Z,16.71
2018-04-10T00:13:53.863Z,16.74
2018-04-10T00:14:54.129Z,16.6
2018-04-10T00:15:53.896Z,16.66
2018-04-10T00:16:53.916Z,16.71
2018-04-10T00:17:54.195Z,16.61
2018-04-10T00:18:53.969Z,16.66
2018-04-10T00:19:53.985Z,16.68
2018-04-10T00:20:54.006Z,16.66
2018-04-10T00:21:54.329Z,16.71
2018-04-10T00:22:54.304Z,16.74
2018-04-10T00:23:54.323Z,16.74
2018-04-10T00:24:53.838Z,16.79
2018-04-10T00:25:54.364Z,16.83
2018-04-10T00:26:54.398Z,16.9
2018-04-10T00:27:54.179Z,16.91
2018-04-10T00:28:54.435Z,16.75
2018-04-10T00:29:54.458Z,16.72
2018-04-10T00:30:54.222Z,16.76
2018-04-10T00:31:54.501Z,16.58
2018-04-10T00:32:54.021Z,16.5
2018-04-10T00:33:54.297Z,16.39
2018-04-10T00:34:54.584Z,16.36
2018-04-10T00:35:54.336Z,16.41
2018-04-10T00:36:54.409Z,16.41
2018-04-10T00:37:54.383Z,16.49
2018-04-10T00:38:54.660Z,16.42
2018-04-10T00:39:54.684Z,16.49
2018-04-10T00:40:54.699Z,16.49
2018-04-10T00:41:54.471Z,16.57
2018-04-10T00:42:54.746Z,16.57
2018-04-10T00:43:54.766Z,16.56
2018-04-10T00:44:54.543Z,16.61
2018-04-10T00:45:54.811Z,16.54
2018-04-10T00:46:54.585Z,16.54
2018-04-10T00:47:54.859Z,16.6
2018-04-10T00:48:54.888Z,16.68
2018-04-10T00:49:54.653Z,16.53
2018-04-10T00:50:54.931Z,16.61
2018-04-10T00:51:54.998Z,16.66
2018-04-10T00:52:54.984Z,16.72
2018-04-10T00:53:54.997Z,16.75
2018-04-10T00:54:55.022Z,16.81
2018-04-10T00:55:54.787Z,16.83
2018-04-10T00:56:55.061Z,16.91
2018-04-10T00:57:54.850Z,16.89
2018-04-10T00:58:54.852Z,16.86
2018-04-10T00:59:54.877Z,16.78
2018-04-10T01:00:55.149Z,16.76
2018-04-10T01:01:55.178Z,16.87
2018-04-10T01:02:54.945Z,16.84
2018-04-10T01:03:55.218Z,16.74
2018-04-10T01:04:55.247Z,16.81
2018-04-10T01:05:55.267Z,16.76
2018-04-10T01:06:55.338Z,16.76
2018-04-10T01:07:55.309Z,16.61
2018-04-10T01:08:54.825Z,16.72
2018-04-10T01:09:55.099Z,16.61
2018-04-10T01:10:54.867Z,16.5
2018-04-10T01:11:55.140Z,16.5
2018-04-10T01:12:55.419Z,16.6
2018-04-10T01:13:55.195Z,16.68
2018-04-10T01:14:55.211Z,16.49
2018-04-10T01:15:55.488Z,16.41
2018-04-10T01:16:55.506Z,16.38
2018-04-10T01:17:55.534Z,16.46
2018-04-10T01:18:55.306Z,16.42
2018-04-10T01:19:55.093Z,16.47
2018-04-10T01:20:55.348Z,16.36
2018-04-10T01:21:55.417Z,16.35
2018-04-10T01:22:55.391Z,16.26
2018-04-10T01:23:55.160Z,16.16
2018-04-10T01:24:55.688Z,16.15
2018-04-10T01:25:55.720Z,16.26
2018-04-10T01:26:55.731Z,16.17
2018-04-10T01:27:55.500Z,16.26
2018-04-10T01:28:55.781Z,16.24
2018-04-10T01:29:55.798Z,16.24
2018-04-10T01:30:55.567Z,16.12
2018-04-10T01:31:55.591Z,16.15
2018-04-10T01:32:55.861Z,16.05
2018-04-10T01:33:55.635Z,16.17
2018-04-10T01:34:55.952Z,16.09
2018-04-10T01:35:55.680Z,15.98
2018-04-10T01:36:55.750Z,16.04
2018-04-10T01:37:55.979Z,15.97
2018-04-10T01:38:56.007Z,15.98
2018-04-10T01:39:55.759Z,15.98
2018-04-10T01:40:56.037Z,15.94
2018-04-10T01:41:56.054Z,16.01
2018-04-10T01:42:56.087Z,15.9
2018-04-10T01:43:55.596Z,15.79
2018-04-10T01:44:55.870Z,15.73
2018-04-10T01:45:56.142Z,15.62
2018-04-10T01:46:55.920Z,15.42
2018-04-10T01:47:55.682Z,15.57
2018-04-10T01:48:56.216Z,15.36
2018-04-10T01:49:55.730Z,15.36
2018-04-10T01:50:56.263Z,15.4
2018-04-10T01:51:56.340Z,15.39
2018-04-10T01:52:56.311Z,15.46
2018-04-10T01:53:56.335Z,15.55
2018-04-10T01:54:56.349Z,15.55
2018-04-10T01:55:56.370Z,15.44
2018-04-10T01:56:55.893Z,15.46
2018-04-10T01:57:56.412Z,15.51
2018-04-10T01:58:56.183Z,15.35
2018-04-10T01:59:56.204Z,15.21
2018-04-10T02:00:56.480Z,15.31
2018-04-10T02:01:56.501Z,15.35
2018-04-10T02:02:56.522Z,15.29
2018-04-10T02:03:56.547Z,15.42
2018-04-10T02:04:56.323Z,15.37
2018-04-10T02:05:56.590Z,15.44
2018-04-10T02:06:56.407Z,15.51
2018-04-10T02:07:56.633Z,15.59
2018-04-10T02:08:56.653Z,15.61
2018-04-10T02:09:56.420Z,15.65
2018-04-10T02:10:56.188Z,15.59
2018-04-10T02:11:56.461Z,15.55
2018-04-10T02:12:56.721Z,15.59
2018-04-10T02:13:56.491Z,15.62
2018-04-10T02:14:56.516Z,15.54
2018-04-10T02:15:56.786Z,15.54
2018-04-10T02:16:56.559Z,15.46
2018-04-10T02:17:56.574Z,15.35
2018-04-10T02:18:56.854Z,15.39
2018-04-10T02:19:56.888Z,15.28
2018-04-10T02:20:56.907Z,15.33
2018-04-10T02:21:56.725Z,15.35
2018-04-10T02:22:56.697Z,15.27
2018-04-10T02:23:56.979Z,15.21
2018-04-10T02:24:57.003Z,15.24
2018-04-10T02:25:57.045Z,15.19
2018-04-10T02:26:57.038Z,15.22
2018-04-10T02:27:56.808Z,15.21
2018-04-10T02:28:57.084Z,15.27
2018-04-10T02:29:56.851Z,15.14
2018-04-10T02:30:57.130Z,15
2018-04-10T02:31:57.149Z,14.96
2018-04-10T02:32:57.164Z,14.91
2018-04-10T02:33:56.681Z,14.96
2018-04-10T02:34:56.725Z,15.17
2018-04-10T02:35:57.230Z,15.09
2018-04-10T02:36:57.048Z,15
2018-04-10T02:37:57.271Z,15.06
2018-04-10T02:38:57.292Z,14.99
2018-04-10T02:39:57.313Z,14.99
2018-04-10T02:40:57.334Z,14.92
2018-04-10T02:41:57.385Z,15.02
2018-04-10T02:42:57.387Z,14.92
2018-04-10T02:43:57.398Z,14.94
2018-04-10T02:44:57.426Z,14.82
2018-04-10T02:45:57.189Z,14.84
2018-04-10T02:46:57.463Z,14.92
2018-04-10T02:47:57.493Z,14.92
2018-04-10T02:48:57.514Z,14.88
2018-04-10T02:49:57.537Z,14.86
2018-04-10T02:50:57.547Z,14.91
2018-04-10T02:51:57.113Z,14.97
2018-04-10T02:52:57.360Z,15.07
2018-04-10T02:53:57.608Z,15.03
2018-04-10T02:54:57.126Z,14.94
2018-04-10T02:55:57.658Z,14.92
2018-04-10T02:56:57.421Z,14.86
2018-04-10T02:57:57.441Z,14.94
2018-04-10T02:58:57.717Z,14.92
2018-04-10T02:59:57.734Z,14.88
2018-04-10T03:00:57.508Z,14.86
2018-04-10T03:01:57.785Z,14.85
2018-04-10T03:02:57.806Z,14.92
2018-04-10T03:03:57.586Z,14.91
2018-04-10T03:04:57.589Z,14.88
2018-04-10T03:05:57.863Z,14.89
2018-04-10T03:06:57.880Z,14.86
2018-04-10T03:07:57.887Z,14.69
2018-04-10T03:08:57.411Z,14.78
2018-04-10T03:09:57.680Z,14.77
2018-04-10T03:10:57.701Z,14.85
2018-04-10T03:11:57.725Z,14.69
2018-04-10T03:12:57.994Z,14.84
2018-04-10T03:13:58.016Z,14.72
2018-04-10T03:14:58.036Z,14.77
2018-04-10T03:15:58.059Z,14.81
2018-04-10T03:16:58.089Z,14.82
2018-04-10T03:17:57.862Z,14.91
2018-04-10T03:18:58.166Z,14.92
2018-04-10T03:19:58.159Z,14.97
2018-04-10T03:20:57.926Z,14.97
2018-04-10T03:21:57.947Z,14.85
2018-04-10T03:22:57.719Z,14.78
2018-04-10T03:23:58.307Z,14.73
2018-04-10T03:24:58.264Z,14.65
2018-04-10T03:25:58.031Z,14.63
2018-04-10T03:26:58.052Z,14.36
2018-04-10T03:27:58.323Z,14.35
2018-04-10T03:28:58.094Z,14.36
2018-04-10T03:29:58.362Z,14.58
2018-04-10T03:30:58.141Z,14.54
2018-04-10T03:31:58.405Z,14.59
2018-04-10T03:32:58.426Z,14.47
2018-04-10T03:33:58.446Z,14.33
2018-04-10T03:34:58.471Z,14.44
2018-04-10T03:35:58.518Z,14.4
2018-04-10T03:36:58.009Z,14.47
2018-04-10T03:37:58.533Z,14.51
2018-04-10T03:38:58.552Z,14.51
2018-04-10T03:39:58.624Z,14.47
2018-04-10T03:40:58.598Z,14.59
2018-04-10T03:41:58.362Z,14.55
2018-04-10T03:42:58.383Z,14.5
2018-04-10T03:43:58.654Z,14.33
2018-04-10T03:44:58.425Z,14.29
2018-04-10T03:45:58.705Z,14.29
2018-04-10T03:46:58.719Z,14.22
2018-04-10T03:47:58.877Z,14.18
2018-04-10T03:48:58.780Z,14.1
2018-04-10T03:49:58.784Z,14.18
2018-04-10T03:50:58.811Z,14.07
2018-04-10T03:51:58.823Z,14.08
2018-04-10T03:52:58.862Z,14.1
2018-04-10T03:53:58.621Z,13.99
2018-04-10T03:54:58.798Z,14.03
2018-04-10T03:55:58.405Z,14.07
2018-04-10T03:56:58.927Z,13.93
2018-04-10T03:57:58.701Z,13.9
2018-04-10T03:58:58.716Z,13.95
2018-04-10T03:59:58.998Z,13.85
2018-04-10T04:00:58.753Z,13.89
2018-04-10T04:01:58.777Z,13.95
2018-04-10T04:02:58.796Z,13.93
2018-04-10T04:03:59.076Z,13.83
2018-04-10T04:04:59.093Z,13.89
2018-04-10T04:05:59.109Z,13.83
2018-04-10T04:06:58.877Z,13.9
2018-04-10T04:07:58.902Z,13.74
2018-04-10T04:08:59.331Z,13.74
2018-04-10T04:09:58.993Z,13.71
2018-04-10T04:10:58.958Z,13.63
2018-04-10T04:11:59.240Z,13.67
2018-04-10T04:12:59.272Z,13.72
2018-04-10T04:13:59.283Z,13.75
2018-04-10T04:14:59.294Z,13.83
2018-04-10T04:15:59.076Z,13.67
2018-04-10T04:16:59.083Z,13.63
2018-04-10T04:17:59.355Z,13.62
2018-04-10T04:18:59.380Z,13.59
2018-04-10T04:19:59.405Z,13.63
2018-04-10T04:20:59.168Z,13.68
2018-04-10T04:21:59.435Z,13.74
2018-04-10T04:22:59.447Z,13.7
2018-04-10T04:23:59.219Z,13.86
2018-04-10T04:24:59.537Z,13.81
2018-04-10T04:25:59.508Z,13.99
2018-04-10T04:26:59.532Z,13.79
2018-04-10T04:27:59.329Z,13.83
2018-04-10T04:28:59.573Z,13.83
2018-04-10T04:29:59.437Z,13.74
2018-04-10T04:30:59.368Z,13.87
2018-04-10T04:31:59.644Z,13.89
2018-04-10T04:32:59.668Z,13.83
2018-04-10T04:33:59.429Z,13.92
2018-04-10T04:34:59.753Z,13.89
2018-04-10T04:35:59.710Z,13.99
2018-04-10T04:36:59.735Z,13.97
2018-04-10T04:37:59.756Z,14.08
2018-04-10T04:38:59.525Z,13.93
2018-04-10T04:39:59.642Z,13.87
2018-04-10T04:40:59.815Z,13.9
2018-04-10T04:41:59.590Z,14
2018-04-10T04:42:59.861Z,13.97
2018-04-10T04:43:59.880Z,13.89
2018-04-10T04:44:59.905Z,13.89
2018-04-10T04:45:59.677Z,13.89
2018-04-10T04:46:59.696Z,13.83
2018-04-10T04:47:59.968Z,14.05
2018-04-10T04:49:00.016Z,13.85
2018-04-10T04:50:00.011Z,13.85
2018-04-10T04:51:00.082Z,13.89
2018-04-10T04:51:59.800Z,13.9
2018-04-10T04:53:00.085Z,13.97
2018-04-10T04:54:00.088Z,14
2018-04-10T04:55:00.114Z,14.1
2018-04-10T04:56:00.136Z,14.1
2018-04-10T04:57:00.153Z,14.05
2018-04-10T04:58:00.177Z,13.96
2018-04-10T04:59:00.194Z,13.89
2018-04-10T05:00:00.212Z,13.81
2018-04-10T05:00:59.983Z,13.83
2018-04-10T05:02:00.262Z,13.95
2018-04-10T05:03:00.273Z,13.85
2018-04-10T05:04:00.299Z,13.81
2018-04-10T05:05:00.314Z,13.86
2018-04-10T05:06:00.387Z,14
2018-04-10T05:07:00.116Z,14.05
2018-04-10T05:07:59.872Z,14.12
2018-04-10T05:09:00.394Z,14.25
2018-04-10T05:10:00.422Z,14.25
2018-04-10T05:11:00.179Z,14.05
2018-04-10T05:12:00.449Z,13.99
2018-04-10T05:13:00.465Z,14.23
2018-04-10T05:14:00.239Z,14.2
2018-04-10T05:15:00.513Z,14.29
2018-04-10T05:16:00.282Z,14.2
2018-04-10T05:17:00.552Z,14.25
2018-04-10T05:18:00.327Z,14.23
2018-04-10T05:19:00.339Z,14.11
2018-04-10T05:20:00.633Z,14.18
2018-04-10T05:21:00.694Z,14.1
2018-04-10T05:22:00.657Z,14.03
2018-04-10T05:23:00.496Z,14.2
2018-04-10T05:24:00.708Z,14.37
2018-04-10T05:25:00.752Z,14.43
2018-04-10T05:26:00.758Z,14.53
2018-04-10T05:27:00.522Z,14.62
2018-04-10T05:28:00.794Z,14.7
2018-04-10T05:29:00.559Z,14.77
2018-04-10T05:30:00.647Z,14.86
2018-04-10T05:31:00.908Z,14.86
2018-04-10T05:32:00.620Z,14.97
2018-04-10T05:33:00.641Z,14.88
2018-04-10T05:34:00.920Z,15.03
2018-04-10T05:35:00.941Z,15.02
2018-04-10T05:36:00.960Z,15.07
2018-04-10T05:37:00.731Z,15.04
2018-04-10T05:38:00.996Z,15.11
2018-04-10T05:39:01.016Z,15.24
2018-04-10T05:40:01.049Z,15.25
2018-04-10T05:41:00.827Z,15.33
2018-04-10T05:42:01.091Z,15.39
2018-04-10T05:43:01.106Z,15.4
2018-04-10T05:44:01.124Z,15.36
2018-04-10T05:45:01.157Z,15.35
2018-04-10T05:46:00.716Z,15.37
2018-04-10T05:47:01.212Z,15.29
2018-04-10T05:48:00.963Z,15.25
2018-04-10T05:49:00.980Z,15.14
2018-04-10T05:50:01.254Z,15.22
2018-04-10T05:51:01.024Z,15.18
2018-04-10T05:52:01.046Z,15.22
2018-04-10T05:53:01.343Z,15.24
2018-04-10T05:54:01.344Z,15.36
2018-04-10T05:55:01.378Z,15.31
2018-04-10T05:56:01.132Z,15.39
2018-04-10T05:57:01.401Z,15.35
2018-04-10T05:58:00.924Z,15.46
2018-04-10T05:59:01.442Z,15.44
2018-04-10T06:00:01.214Z,15.43
2018-04-10T06:01:01.283Z,15.39
2018-04-10T06:02:01.506Z,15.37
2018-04-10T06:03:01.533Z,15.37
2018-04-10T06:04:01.629Z,15.47
2018-04-10T06:05:01.319Z,15.52
2018-04-10T06:06:01.592Z,15.39
2018-04-10T06:07:01.614Z,15.35
2018-04-10T06:08:01.393Z,15.24
2018-04-10T06:09:01.662Z,15.24
2018-04-10T06:10:01.692Z,15.27
2018-04-10T06:11:01.203Z,15.28
2018-04-10T06:12:01.473Z,15.43
2018-04-10T06:13:01.497Z,15.55
2018-04-10T06:14:01.520Z,15.57
2018-04-10T06:15:01.791Z,15.59
2018-04-10T06:16:01.816Z,15.62
2018-04-10T06:17:01.840Z,15.65
2018-04-10T06:18:01.905Z,15.57
2018-04-10T06:19:01.378Z,15.58
2018-04-10T06:20:01.899Z,15.54
2018-04-10T06:21:01.932Z,15.43
2018-04-10T06:22:01.693Z,15.46
2018-04-10T06:23:01.863Z,15.51
2018-04-10T06:24:01.739Z,15.54
2018-04-10T06:25:02.013Z,15.54
2018-04-10T06:26:02.044Z,15.64
2018-04-10T06:27:01.838Z,15.8
2018-04-10T06:28:02.080Z,15.8
2018-04-10T06:29:02.101Z,15.82
2018-04-10T06:30:02.124Z,15.86
2018-04-10T06:31:01.901Z,15.77
2018-04-10T06:32:01.912Z,15.83
2018-04-10T06:33:02.239Z,15.68
2018-04-10T06:34:02.191Z,15.9
2018-04-10T06:35:01.717Z,16.02
2018-04-10T06:36:02.236Z,16.15
2018-04-10T06:37:02.260Z,16.24
2018-04-10T06:38:02.047Z,16.16
2018-04-10T06:39:02.323Z,16.21
2018-04-10T06:40:02.097Z,16.42
2018-04-10T06:41:02.365Z,16.43
2018-04-10T06:42:02.388Z,16.58
2018-04-10T06:43:02.410Z,16.6
2018-04-10T06:44:02.433Z,16.66
2018-04-10T06:45:02.463Z,16.68
2018-04-10T06:46:02.486Z,16.64
2018-04-10T06:47:02.495Z,16.64
2018-04-10T06:48:02.568Z,16.56
2018-04-10T06:49:02.542Z,16.41
2018-04-10T06:50:02.334Z,16.57
2018-04-10T06:51:02.592Z,16.64
2018-04-10T06:52:02.355Z,16.42
2018-04-10T06:53:02.469Z,16.13
2018-04-10T06:54:02.405Z,16.16
2018-04-10T06:55:02.675Z,15.95
2018-04-10T06:56:02.446Z,15.83
2018-04-10T06:57:02.725Z,16
2018-04-10T06:58:02.748Z,16.31
2018-04-10T06:59:02.771Z,16.68
2018-04-10T07:00:02.542Z,16.74
2018-04-10T07:01:02.817Z,16.74
2018-04-10T07:02:02.583Z,16.76
2018-04-10T07:03:02.653Z,16.64
2018-04-10T07:04:02.628Z,16.69
2018-04-10T07:05:02.912Z,16.83
2018-04-10T07:06:02.925Z,16.96
2018-04-10T07:07:02.438Z,16.74
2018-04-10T07:08:02.768Z,16.75
2018-04-10T07:09:02.783Z,16.81
2018-04-10T07:10:02.765Z,16.96
2018-04-10T07:11:02.782Z,16.89
2018-04-10T07:12:03.058Z,16.97
2018-04-10T07:13:02.840Z,17.22
2018-04-10T07:14:03.110Z,17.11
2018-04-10T07:15:02.875Z,17.01
2018-04-10T07:16:03.152Z,17.09
2018-04-10T07:17:03.178Z,17.19
2018-04-10T07:18:03.246Z,17.23
2018-04-10T07:19:03.215Z,17.33
2018-04-10T07:20:03.003Z,17.39
2018-04-10T07:21:03.091Z,17.39
2018-04-10T07:22:03.282Z,17.39
2018-04-10T07:23:03.051Z,17.46
2018-04-10T07:24:03.072Z,17.52
2018-04-10T07:25:03.370Z,17.7
2018-04-10T07:26:03.392Z,17.8
2018-04-10T07:27:03.142Z,17.94
2018-04-10T07:28:03.161Z,18.07
2018-04-10T07:29:03.437Z,18.15
2018-04-10T07:30:03.460Z,18.31
2018-04-10T07:31:03.491Z,18.38
2018-04-10T07:32:03.503Z,18.5
2018-04-10T07:33:03.089Z,18.43
2018-04-10T07:34:03.591Z,18.56
2018-04-10T07:35:03.330Z,18.7
2018-04-10T07:36:03.604Z,18.81
2018-04-10T07:37:03.378Z,18.73
2018-04-10T07:38:04.013Z,18.62
2018-04-10T07:39:03.674Z,18.59
2018-04-10T07:40:03.447Z,18.26
2018-04-10T07:41:03.600Z,18.37
2018-04-10T07:42:03.492Z,18.38
2018-04-10T07:43:03.616Z,18.6
2018-04-10T07:44:03.555Z,18.71
2018-04-10T07:45:03.806Z,18.66
2018-04-10T07:46:03.887Z,18.49
2018-04-10T07:47:03.858Z,18.38
2018-04-10T07:48:03.884Z,18.52
2018-04-10T07:49:03.647Z,18.52
2018-04-10T07:50:03.672Z,18.49
2018-04-10T07:51:03.698Z,18.6
2018-04-10T07:52:03.983Z,18.66
2018-04-10T07:53:04.054Z,18.74
2018-04-10T07:54:04.027Z,18.74
2018-04-10T07:55:04.060Z,18.66
2018-04-10T07:56:04.097Z,18.78
2018-04-10T07:57:03.851Z,18.84
2018-04-10T07:58:04.132Z,18.75
2018-04-10T07:59:03.892Z,18.7
2018-04-10T08:00:04.182Z,18.81
2018-04-10T08:01:03.939Z,18.9
2018-04-10T08:02:03.967Z,18.89
2018-04-10T08:03:04.291Z,18.92
2018-04-10T08:04:04.265Z,18.95
2018-04-10T08:05:04.044Z,19.14
2018-04-10T08:06:04.317Z,19.15
2018-04-10T08:07:04.092Z,19.15
2018-04-10T08:08:04.157Z,18.96
2018-04-10T08:09:04.137Z,19.02
2018-04-10T08:10:04.406Z,18.84
2018-04-10T08:11:04.181Z,18.75
2018-04-10T08:12:04.204Z,18.74
2018-04-10T08:13:04.228Z,18.81
2018-04-10T08:14:04.000Z,18.93
2018-04-10T08:15:04.274Z,19.11
2018-04-10T08:16:04.300Z,18.92
2018-04-10T08:17:04.328Z,18.74
2018-04-10T08:18:04.350Z,18.62
2018-04-10T08:19:04.422Z,18.73
2018-04-10T08:20:04.395Z,18.71
2018-04-10T08:21:04.669Z,18.96
2018-04-10T08:22:04.192Z,19.12
2018-04-10T08:23:04.507Z,19.18
2018-04-10T08:24:04.748Z,19.14
2018-04-10T08:25:04.262Z,19.14
2018-04-10T08:26:04.292Z,19.22
2018-04-10T08:27:04.565Z,19.29
2018-04-10T08:28:04.841Z,19.52
2018-04-10T08:29:04.868Z,19.56
2018-04-10T08:30:04.888Z,19.7
2018-04-10T08:31:04.656Z,19.76
2018-04-10T08:32:04.431Z,19.86
2018-04-10T08:33:04.709Z,19.95
2018-04-10T08:34:04.884Z,19.92
2018-04-10T08:35:04.782Z,19.79
2018-04-10T08:36:05.048Z,19.74
2018-04-10T08:37:05.056Z,19.76
2018-04-10T08:38:05.092Z,19.81
2018-04-10T08:39:05.103Z,19.88
2018-04-10T08:40:05.164Z,19.76
2018-04-10T08:41:05.161Z,19.66
2018-04-10T08:42:05.188Z,19.64
2018-04-10T08:43:05.204Z,19.84
2018-04-10T08:44:05.235Z,19.96
2018-04-10T08:45:05.100Z,20.11
2018-04-10T08:46:05.281Z,19.89
2018-04-10T08:47:05.303Z,19.95
2018-04-10T08:48:05.080Z,19.77
2018-04-10T08:49:05.404Z,19.69
2018-04-10T08:50:05.384Z,19.84
2018-04-10T08:51:05.400Z,19.55
2018-04-10T08:52:05.425Z,19.47
2018-04-10T08:53:05.452Z,19.66
2018-04-10T08:54:05.480Z,19.71
2018-04-10T08:55:05.504Z,19.85
2018-04-10T08:56:05.278Z,19.96
2018-04-10T08:57:05.545Z,20.11
2018-04-10T08:58:05.572Z,20.29
2018-04-10T08:59:05.594Z,20.29
2018-04-10T09:00:05.619Z,20.37
2018-04-10T09:01:05.399Z,20.32
2018-04-10T09:02:05.685Z,20.32
2018-04-10T09:03:05.701Z,20.44
2018-04-10T09:04:05.774Z,20.43
2018-04-10T09:05:05.497Z,20.51
2018-04-10T09:06:05.521Z,20.66
2018-04-10T09:07:05.796Z,20.63
2018-04-10T09:08:05.825Z,20.63
2018-04-10T09:09:05.596Z,20.69
2018-04-10T09:10:05.369Z,20.65
2018-04-10T09:11:05.896Z,20.75
2018-04-10T09:12:05.673Z,20.93
2018-04-10T09:13:05.956Z,21.12
2018-04-10T09:14:05.727Z,21.14
2018-04-10T09:15:05.747Z,21.15
2018-04-10T09:16:05.772Z,20.93
2018-04-10T09:17:06.067Z,20.74
2018-04-10T09:18:06.080Z,20.56
2018-04-10T09:19:06.152Z,20.48
2018-04-10T09:20:05.877Z,20.36
2018-04-10T09:21:05.643Z,20.39
2018-04-10T09:22:05.938Z,20.32
2018-04-10T09:23:05.946Z,20.31
2018-04-10T09:24:05.975Z,20.56
2018-04-10T09:25:05.743Z,20.31
2018-04-10T09:26:06.281Z,20.22
2018-04-10T09:27:06.048Z,19.88
2018-04-10T09:28:05.819Z,19.88
2018-04-10T09:29:05.856Z,20.03
2018-04-10T09:30:06.127Z,20.28
2018-04-10T09:31:06.163Z,20.24
2018-04-10T09:32:06.186Z,20.28
2018-04-10T09:33:06.502Z,20.13
2018-04-10T09:34:06.025Z,20.18
2018-04-10T09:35:06.007Z,20.32
2018-04-10T09:36:06.022Z,20.31
2018-04-10T09:37:06.555Z,20.56
2018-04-10T09:38:06.332Z,20.51
2018-04-10T09:39:06.660Z,20.65
2018-04-10T09:40:06.640Z,20.69
2018-04-10T09:41:06.405Z,20.95
2018-04-10T09:42:06.434Z,21.09
2018-04-10T09:43:06.717Z,21.06
2018-04-10T09:44:06.723Z,21.12
2018-04-10T09:45:06.247Z,21.36
2018-04-10T09:46:06.531Z,21.32
2018-04-10T09:47:06.804Z,21.25
2018-04-10T09:48:06.847Z,21.29
2018-04-10T09:49:06.409Z,21.32
2018-04-10T09:50:06.915Z,21.52
2018-04-10T09:51:06.902Z,21.8
2018-04-10T09:52:06.423Z,21.83
2018-04-10T09:53:06.449Z,21.91
2018-04-10T09:54:07.061Z,21.99
2018-04-10T09:55:07.011Z,22.06
2018-04-10T09:56:06.530Z,22
2018-04-10T09:57:07.050Z,22.14
2018-04-10T09:58:06.825Z,22.22
2018-04-10T09:59:07.113Z,22.2
2018-04-10T10:00:06.900Z,22.15
2018-04-10T10:01:06.911Z,22.11
2018-04-10T10:02:06.684Z,22.25
2018-04-10T10:03:06.973Z,22.2
2018-04-10T10:04:07.292Z,22.17
2018-04-10T10:05:07.036Z,22.14
2018-04-10T10:06:07.042Z,22.25
2018-04-10T10:07:07.068Z,22.08
2018-04-10T10:08:07.107Z,21.83
2018-04-10T10:09:07.270Z,21.83
2018-04-10T10:10:07.156Z,21.79
2018-04-10T10:11:07.425Z,22.06
2018-04-10T10:12:07.459Z,21.89
2018-04-10T10:13:07.474Z,21.93
2018-04-10T10:14:07.245Z,21.76
2018-04-10T10:15:07.542Z,21.79
2018-04-10T10:16:07.557Z,22
2018-04-10T10:17:07.582Z,22.13
2018-04-10T10:18:07.345Z,22.13
2018-04-10T10:19:07.375Z,22.15
2018-04-10T10:20:07.145Z,22.2
2018-04-10T10:21:07.673Z,22.14
2018-04-10T10:22:07.703Z,22.08
2018-04-10T10:23:07.472Z,22.1
2018-04-10T10:24:07.836Z,22.23
2018-04-10T10:25:07.526Z,22.18
2018-04-10T10:26:07.621Z,22.14
2018-04-10T10:27:07.831Z,22.28
2018-04-10T10:28:07.352Z,22.29
2018-04-10T10:29:07.883Z,22.43
2018-04-10T10:30:07.916Z,22.53
2018-04-10T10:31:07.681Z,22.53
2018-04-10T10:32:07.944Z,22.53
2018-04-10T10:33:08.045Z,22.59
2018-04-10T10:34:07.748Z,22.53
2018-04-10T10:35:08.027Z,22.51
2018-04-10T10:36:08.057Z,22.51
2018-04-10T10:37:07.841Z,22.43
2018-04-10T10:38:07.848Z,22.62
2018-04-10T10:39:07.895Z,22.75
2018-04-10T10:40:08.206Z,22.84
2018-04-10T10:41:07.953Z,22.96
2018-04-10T10:42:07.956Z,22.99
2018-04-10T10:43:08.258Z,23.15
2018-04-10T10:44:08.022Z,23.28
2018-04-10T10:45:08.298Z,23.27
2018-04-10T10:46:08.321Z,23.28
2018-04-10T10:47:08.172Z,23.56
2018-04-10T10:48:07.869Z,23.56
2018-04-10T10:49:08.401Z,23.78
2018-04-10T10:50:08.432Z,23.76
2018-04-10T10:51:08.205Z,23.93
2018-04-10T10:52:08.234Z,23.93
2018-04-10T10:53:08.516Z,23.87
2018-04-10T10:54:08.538Z,23.86
2018-04-10T10:55:08.359Z,24.05
2018-04-10T10:56:08.571Z,24.13
2018-04-10T10:57:08.344Z,24.29
2018-04-10T10:58:08.737Z,24.43
2018-04-10T10:59:08.403Z,24.54
2018-04-10T11:00:08.521Z,24.4
2018-04-10T11:01:08.507Z,24.47
2018-04-10T11:02:08.735Z,24.77
2018-04-10T11:03:08.760Z,24.92
2018-04-10T11:04:08.542Z,25.13
2018-04-10T11:05:08.582Z,25.18
2018-04-10T11:06:08.842Z,25.23
2018-04-10T11:07:08.618Z,25.35
2018-04-10T11:08:08.645Z,25.68
2018-04-10T11:09:08.434Z,25.44
2018-04-10T11:10:08.716Z,25.51
2018-04-10T11:11:09.065Z,25.93
2018-04-10T11:12:08.766Z,25.96
2018-04-10T11:13:08.793Z,26
2018-04-10T11:14:09.077Z,26.03
2018-04-10T11:15:09.103Z,26.25
2018-04-10T11:16:09.133Z,26.36
2018-04-10T11:17:09.160Z,26.56
2018-04-10T11:18:08.685Z,26.56
2018-04-10T11:19:09.218Z,26.68
2018-04-10T11:20:09.047Z,26.75
2018-04-10T11:21:08.794Z,26.75
2018-04-10T11:22:09.316Z,26.97
2018-04-10T11:23:09.093Z,27.07
2018-04-10T11:24:09.371Z,27.08
2018-04-10T11:25:09.149Z,27.22
2018-04-10T11:26:09.231Z,27.22
2018-04-10T11:27:09.208Z,27.26
2018-04-10T11:28:09.485Z,27.37
2018-04-10T11:29:09.270Z,27.63
2018-04-10T11:30:09.546Z,27.49
2018-04-10T11:31:09.324Z,27.32
2018-04-10T11:32:09.625Z,27.21
2018-04-10T11:33:09.637Z,27.03
2018-04-10T11:34:09.663Z,26.93
2018-04-10T11:35:09.442Z,26.93
2018-04-10T11:36:09.724Z,26.6
2018-04-10T11:37:09.753Z,26.53
2018-04-10T11:38:09.784Z,26.78
2018-04-10T11:39:09.617Z,27.02
2018-04-10T11:40:09.335Z,27.25
2018-04-10T11:41:09.920Z,27.17
2018-04-10T11:42:09.917Z,27.32
2018-04-10T11:43:09.938Z,27.26
2018-04-10T11:44:09.959Z,27.36
2018-04-10T11:45:09.997Z,27.51
2018-04-10T11:46:09.766Z,27.71
2018-04-10T11:47:09.547Z,27.86
2018-04-10T11:48:09.823Z,27.83
2018-04-10T11:49:10.103Z,27.67
2018-04-10T11:50:10.140Z,27.64
2018-04-10T11:51:09.909Z,27.44
2018-04-10T11:52:09.940Z,27.39
2018-04-10T11:53:10.223Z,27.27
2018-04-10T11:54:10.001Z,27.4
2018-04-10T11:55:10.289Z,27.45
2018-04-10T11:56:09.859Z,27.32
2018-04-10T11:57:09.837Z,27.52
2018-04-10T11:58:10.370Z,27.59
2018-04-10T11:59:10.148Z,27.26
2018-04-10T12:00:10.442Z,27.27
2018-04-10T12:01:10.208Z,27.32
2018-04-10T12:02:10.553Z,27.39
2018-04-10T12:03:10.265Z,27.59
2018-04-10T12:04:10.042Z,27.44
2018-04-10T12:05:10.575Z,27.6
2018-04-10T12:06:10.614Z,27.74
2018-04-10T12:07:10.131Z,27.7
2018-04-10T12:08:10.469Z,27.9
2018-04-10T12:09:10.443Z,27.96
2018-04-10T12:10:10.472Z,28.15
2018-04-10T12:11:10.557Z,28.08
2018-04-10T12:12:10.530Z,28.11
2018-04-10T12:13:10.310Z,28.23
2018-04-10T12:14:10.592Z,28.38
2018-04-10T12:15:10.370Z,28.49
2018-04-10T12:16:10.998Z,28.49
2018-04-10T12:17:10.940Z,28.69
2018-04-10T12:18:10.474Z,28.44
2018-04-10T12:19:10.730Z,28.42
2018-04-10T12:20:11.015Z,28.42
2018-04-10T12:21:10.789Z,28.39
2018-04-10T12:22:10.833Z,28.27
2018-04-10T12:23:11.119Z,28.11
2018-04-10T12:24:10.887Z,28.11
2018-04-10T12:25:10.923Z,28.27
2018-04-10T12:26:10.762Z,28.26
2018-04-10T12:27:10.991Z,28.07
2018-04-10T12:28:11.009Z,28.38
2018-04-10T12:29:11.045Z,28.54
2018-04-10T12:30:11.091Z,28.42
2018-04-10T12:31:11.363Z,28.38
2018-04-10T12:32:11.131Z,28.17
2018-04-10T12:33:11.414Z,28.27
2018-04-10T12:34:11.443Z,28.52
2018-04-10T12:35:11.227Z,28.38
2018-04-10T12:36:11.004Z,28.52
2018-04-10T12:37:11.284Z,28.51
2018-04-10T12:38:11.316Z,28.69
2018-04-10T12:39:11.341Z,28.89
2018-04-10T12:40:11.630Z,29.19
2018-04-10T12:41:11.403Z,29.12
2018-04-10T12:42:11.727Z,29.2
2018-04-10T12:43:11.539Z,29.27
2018-04-10T12:44:11.748Z,29.39
2018-04-10T12:45:11.777Z,29.51
2018-04-10T12:46:11.302Z,29.57
2018-04-10T12:47:11.842Z,29.73
2018-04-10T12:48:11.872Z,29.87
2018-04-10T12:49:11.692Z,30.09
2018-04-10T12:50:11.928Z,30.27
2018-04-10T12:51:11.455Z,30.66
2018-04-10T12:52:11.990Z,30.75
2018-04-10T12:53:11.517Z,31.02
2018-04-10T12:54:12.053Z,31.15
2018-04-10T12:55:12.090Z,31.22
2018-04-10T12:56:12.119Z,31.56